»·PEaware :: N982CA KAVX-KSAN

N982CA :: KAVX-KSAN

FLIGHT INFORMATION

Flight Status: Arrived
Operator: Privately registered:
United States
More flights under this callsign
Pilot: Anonymous 15639 (15639)
Aircraft: Unknown
(DA62)
More flights by this aircraft type
Origin: KAVX Catalina
United States
Destination: KSAN San Diego Intl-Lindbergh
United States
More flights between these airports :: More routes between these airports
Route: SXC V208 OCN V23 MZB
File this flight plan on PilotEdge
Remarks: TEC route CSTP56 / RMK I-8 Rating
Altitude:
(Current/Filed)
5,000ft
Speed:
(Current/Filed)
175kts
Departed: 20-Jul-18 08:35 AM
Arrived: 20-Jul-18 09:24 AM
Distance/Time
Traveled:
74nm/0:49
Distance/Time
To Go:
Arrived

Flight Plot

Page will automatically refresh every two minutes.


Map Options




Map Legend


Flown Route
Filed Route
Departure Airport
Arrival Airport
Navaid (VOR, NDB)
Fix

Horizontal Profiles

Position Reports

Time Latitude Longitude Heading Altitude Ground
Speed
20-Jul-18 08:19 33.403485 -118.415019 324 1606ft 0kts
20-Jul-18 08:20 33.403485 -118.415019 324 1606ft 0kts
20-Jul-18 08:21 33.403485 -118.415019 324 1606ft 0kts
20-Jul-18 08:22 33.403485 -118.415019 324 1606ft 0kts
20-Jul-18 08:23 33.403485 -118.415019 324 1606ft 0kts
20-Jul-18 08:24 33.403485 -118.415019 324 1606ft 0kts
20-Jul-18 08:25 33.403485 -118.415019 324 1606ft 0kts
20-Jul-18 08:26 33.403485 -118.415019 324 1606ft 0kts
20-Jul-18 08:27 33.403485 -118.415019 324 1606ft 0kts
20-Jul-18 08:28 33.403485 -118.415019 324 1606ft 0kts
20-Jul-18 08:29 33.403485 -118.415019 324 1606ft 0kts
20-Jul-18 08:30 33.403485 -118.415019 324 1606ft 0kts
20-Jul-18 08:31 33.403485 -118.415019 324 1606ft 0kts
20-Jul-18 08:32 33.404152 -118.414991 355 1606ft 7kts
20-Jul-18 08:33 33.406037 -118.413296 54 1606ft 11kts
20-Jul-18 08:34 33.407113 -118.411508 46 1606ft 0kts
20-Jul-18 08:35 33.407113 -118.411508 46 1606ft 0kts
20-Jul-18 08:36 33.403047 -118.419290 237 1705ft 89kts
20-Jul-18 08:37 33.389022 -118.449888 227 2669ft 114kts
20-Jul-18 08:38 33.371761 -118.437277 59 3601ft 121kts
20-Jul-18 08:39 33.372774 -118.400104 103 4515ft 123kts
20-Jul-18 08:40 33.366888 -118.357542 100 5007ft 148kts
20-Jul-18 08:41 33.360243 -118.306642 100 4999ft 156kts
20-Jul-18 08:42 33.353520 -118.255299 101 4996ft 156kts
20-Jul-18 08:43 33.346758 -118.203885 101 4992ft 157kts
20-Jul-18 08:44 33.339926 -118.152111 101 4990ft 158kts
20-Jul-18 08:45 33.333050 -118.100153 101 5013ft 157kts
20-Jul-18 08:46 33.326193 -118.048465 101 5023ft 158kts
20-Jul-18 08:47 33.319183 -117.996629 98 5018ft 157kts
20-Jul-18 08:48 33.312379 -117.944971 97 5013ft 158kts
20-Jul-18 08:49 33.305415 -117.892965 96 5007ft 159kts
20-Jul-18 08:50 33.298357 -117.840531 96 5001ft 161kts
20-Jul-18 08:51 33.291196 -117.787563 96 5000ft 161kts
20-Jul-18 08:52 33.283836 -117.734708 97 5000ft 161kts
20-Jul-18 08:53 33.276154 -117.683681 97 4999ft 161kts
20-Jul-18 08:54 33.268196 -117.630984 97 4999ft 161kts
20-Jul-18 08:55 33.260194 -117.578047 97 4963ft 161kts
20-Jul-18 08:56 33.253747 -117.525472 96 4963ft 159kts
20-Jul-18 08:57 33.247367 -117.473126 96 4962ft 158kts
20-Jul-18 08:58 33.239259 -117.422476 126 4957ft 161kts
20-Jul-18 08:59 33.197967 -117.400218 156 4962ft 165kts
20-Jul-18 09:00 33.157162 -117.382572 157 4954ft 166kts
20-Jul-18 09:01 33.113382 -117.364015 158 4954ft 167kts
20-Jul-18 09:02 33.069731 -117.345819 158 4955ft 167kts
20-Jul-18 09:03 33.025843 -117.327376 159 4965ft 167kts
20-Jul-18 09:04 32.981873 -117.308934 159 4967ft 168kts
20-Jul-18 09:05 32.937988 -117.290500 162 4976ft 166kts
20-Jul-18 09:06 32.894753 -117.272457 162 4982ft 164kts
20-Jul-18 09:07 32.851782 -117.254495 162 4986ft 163kts
20-Jul-18 09:08 32.809016 -117.236635 162 4989ft 163kts
20-Jul-18 09:09 32.775633 -117.205726 102 4994ft 168kts
20-Jul-18 09:10 32.766303 -117.151548 101 4994ft 165kts
20-Jul-18 09:11 32.756458 -117.098488 101 4997ft 163kts
20-Jul-18 09:12 32.746733 -117.046060 101 4997ft 162kts
20-Jul-18 09:13 32.736921 -116.993784 101 4997ft 162kts
20-Jul-18 09:14 32.727000 -116.941545 101 4998ft 162kts
20-Jul-18 09:15 32.716755 -116.889472 110 4993ft 163kts
20-Jul-18 09:16 32.684584 -116.901791 250 4254ft 163kts
20-Jul-18 09:17 32.676051 -116.951645 285 3602ft 145kts
20-Jul-18 09:18 32.685975 -116.994166 287 3279ft 132kts
20-Jul-18 09:19 32.695675 -117.033949 286 2714ft 107kts
20-Jul-18 09:20 32.703589 -117.066317 286 2172ft 97kts
20-Jul-18 09:21 32.710845 -117.096219 286 1734ft 98kts
20-Jul-18 09:22 32.718301 -117.126879 285 1027ft 95kts
20-Jul-18 09:23 32.725541 -117.156639 286 449ft 92kts
20-Jul-18 09:24 32.732481 -117.185233 286 21ft 71kts
20-Jul-18 09:25 32.734004 -117.188074 12 21ft 0kts
20-Jul-18 09:26 32.733379 -117.184134 106 21ft 16kts
20-Jul-18 09:27 32.732314 -117.178622 72 21ft 13kts
20-Jul-18 09:28 32.732288 -117.177791 195 21ft 0kts
20-Jul-18 09:29 32.732288 -117.177791 195 21ft 0kts

Navigation Log

Ident Type
1. KAVX Airport
2. SXC Navaid
3. AVOLS Fix
4. PACIF Fix
5. HUBRD Fix
6. OCN Navaid
7. HURSI Fix
8. CARIF Fix
9. MZB Navaid
10. KSAN Airport